Terminal Aerodrome Forecast
Issued by NWS

Home | Current Version | Previous Version | Text Only | Print | Product List | Glossary On
Versions: 1 2 3 4 5 6 7 8 9 10 11 12 13 14 15 16 17 18
587
FTUS46 KSTO 241728
TAFSAC
TAF
KSAC 241728Z 2418/2518 15014G23KT 6SM -RA OVC035
      TEMPO 2419/2423 3SM RA OVC020
     FM250200 17007KT P6SM -SHRA OVC040
     FM250600 16005KT P6SM OVC050=

USA.gov is the U.S. government's official web portal to all federal, state and local government web resources and services.